Time;durP1;ratioP1;P1;durP2;ratioP2;P2;SDS_P1;SDS_P2;PMS_P1;PMS_P2;Temp;Humidity;BMP_temperature;BMP_pressure;BME280_temperature;BME280_humidity;BME280_pressure;Samples;Min_cycle;Max_cycle;Signal;HPM_P1;HPM_P2
2022/04/08 05:04:13;;;;;;;6.75;1.10;;;8.30;90.20;;;;;;6193901;23;20017;-79
2022/04/08 05:06:39;;;;;;;4.18;0.80;;;8.40;90.30;;;;;;6143236;23;20215;-80
2022/04/08 05:09:05;;;;;;;9.48;1.50;;;8.40;90.30;;;;;;6142335;23;20100;-80
2022/04/08 05:11:31;;;;;;;6.13;1.15;;;8.40;90.20;;;;;;6195072;23;20005;-81
2022/04/08 05:13:57;;;;;;;3.38;0.70;;;8.40;90.10;;;;;;6144613;23;19990;-81
2022/04/08 05:16:23;;;;;;;7.28;1.20;;;8.50;90.10;;;;;;6143956;23;20065;-83
2022/04/08 05:18:48;;;;;;;5.47;1.00;;;8.50;90.10;;;;;;6143521;23;19993;-82
2022/04/08 05:21:14;;;;;;;5.38;1.08;;;8.50;90.00;;;;;;6143654;23;20005;-82
2022/04/08 05:23:40;;;;;;;6.05;0.93;;;8.50;89.70;;;;;;6144070;23;20009;-81
2022/04/08 05:26:15;;;;;;;6.05;1.17;;;8.60;89.70;;;;;;6169469;23;20020;-81
2022/04/08 05:28:41;;;;;;;6.55;0.95;;;8.60;90.00;;;;;;6148065;23;20012;-80
2022/04/08 05:34:41;;;;;;;4.75;1.10;;;8.70;89.90;;;;;;6153373;23;20062;-81
2022/04/08 05:37:07;;;;;;;5.53;1.17;;;8.70;89.90;;;;;;6167911;23;20187;-80
2022/04/08 05:39:33;;;;;;;3.97;0.95;;;8.70;90.00;;;;;;6143268;23;20009;-81
2022/04/08 05:41:59;;;;;;;4.25;1.02;;;8.80;89.70;;;;;;6168233;23;20005;-80
2022/04/08 05:44:25;;;;;;;6.75;0.90;;;8.80;89.70;;;;;;6143495;23;20005;-81
2022/04/08 05:46:52;;;;;;;4.10;0.90;;;8.90;89.40;;;;;;6166243;23;20184;-81
2022/04/08 05:49:18;;;;;;;6.88;1.65;;;9.00;89.10;;;;;;6192463;23;19993;-82
2022/04/08 05:51:45;;;;;;;4.05;0.82;;;8.90;89.10;;;;;;6167224;23;20008;-82
2022/04/08 05:54:14;;;;;;;5.32;0.88;;;8.90;89.50;;;;;;6192776;23;20004;-81
2022/04/08 05:56:39;;;;;;;6.68;1.25;;;9.00;90.10;;;;;;6193742;23;20008;-79
2022/04/08 05:59:05;;;;;;;10.38;1.25;;;9.00;89.50;;;;;;6145512;23;20012;-81
2022/04/08 06:01:31;;;;;;;6.55;1.13;;;9.00;90.00;;;;;;6195606;23;20206;-83
2022/04/08 06:04:29;;;;;;;9.40;1.10;;;9.00;90.90;;;;;;6198923;23;20015;-83
2022/04/08 06:06:55;;;;;;;6.15;0.90;;;9.00;90.60;;;;;;6224039;23;20000;-82
2022/04/08 06:09:21;;;;;;;6.53;1.10;;;9.10;90.80;;;;;;6199192;23;20031;-80
2022/04/08 06:11:48;;;;;;;6.95;1.13;;;9.10;91.20;;;;;;6199141;23;20317;-83
2022/04/08 06:14:17;;;;;;;10.38;1.45;;;9.10;91.60;;;;;;6200697;23;20028;-80
2022/04/08 06:16:43;;;;;;;8.10;1.10;;;9.10;92.40;;;;;;6198712;23;20004;-82
2022/04/08 06:19:12;;;;;;;7.65;1.20;;;9.20;91.60;;;;;;6199217;23;20012;-83
2022/04/08 06:21:37;;;;;;;7.00;1.13;;;9.10;92.00;;;;;;6224173;23;20230;-82
2022/04/08 06:24:04;;;;;;;5.28;1.23;;;9.10;92.90;;;;;;6198597;23;20016;-79
2022/04/08 06:26:29;;;;;;;5.07;0.90;;;9.00;92.40;;;;;;6198929;23;20282;-81
2022/04/08 06:28:55;;;;;;;4.35;0.80;;;8.90;93.10;;;;;;6224064;23;20008;-80
2022/04/08 06:31:21;;;;;;;3.40;0.90;;;8.90;93.70;;;;;;6198388;23;20214;-80
2022/04/08 06:33:51;;;;;;;5.65;1.02;;;8.90;93.10;;;;;;6198894;23;20227;-81
2022/04/08 06:36:23;;;;;;;4.85;0.93;;;9.00;93.60;;;;;;6199344;23;20336;-81
2022/04/08 06:38:49;;;;;;;5.82;1.00;;;9.00;93.10;;;;;;6199256;23;20009;-78
2022/04/08 06:41:14;;;;;;;5.60;1.33;;;8.90;93.20;;;;;;6198745;23;20016;-79
2022/04/08 06:43:43;;;;;;;6.72;1.13;;;9.00;93.60;;;;;;6174520;23;19988;-82
2022/04/08 06:46:09;;;;;;;;;;;8.90;94.30;;;;;;6197746;23;20013;-81
2022/04/08 06:48:34;;;;;;;4.40;1.13;;;8.90;94.10;;;;;;6198544;23;20043;-80
2022/04/08 06:51:25;;;;;;;5.75;1.00;;;8.90;93.70;;;;;;6198450;23;20016;-79
2022/04/08 06:53:56;;;;;;;4.28;1.10;;;8.90;93.80;;;;;;6198460;23;20011;-83
2022/04/08 06:56:22;;;;;;;5.53;0.60;;;8.80;94.00;;;;;;6198493;23;20015;-81
2022/04/08 06:58:48;;;;;;;5.45;0.80;;;8.80;94.30;;;;;;6224238;23;20008;-82
2022/04/08 07:01:14;;;;;;;5.35;1.25;;;8.80;94.70;;;;;;6222120;23;20023;-82
2022/04/08 07:03:40;;;;;;;4.50;0.77;;;8.60;95.40;;;;;;6223607;23;20194;-80
2022/04/08 07:06:06;;;;;;;4.10;1.00;;;8.60;95.60;;;;;;6224227;23;20048;-81
2022/04/08 07:08:33;;;;;;;4.10;0.95;;;8.50;96.70;;;;;;6198541;23;19996;-79
2022/04/08 07:11:00;;;;;;;5.00;0.63;;;8.40;97.50;;;;;;6197613;23;20008;-81
2022/04/08 07:13:25;;;;;;;5.90;0.95;;;8.20;97.90;;;;;;6223618;23;20031;-81
2022/04/08 07:15:52;;;;;;;6.55;1.05;;;8.10;98.40;;;;;;6197780;23;20093;-83
2022/04/08 07:18:18;;;;;;;4.05;0.90;;;8.10;98.90;;;;;;6223759;23;20024;-81
2022/04/08 07:20:43;;;;;;;6.50;1.27;;;8.10;98.30;;;;;;6223582;23;20266;-80
2022/04/08 07:23:09;;;;;;;4.05;1.10;;;8.00;98.60;;;;;;6197377;23;20000;-80
2022/04/08 07:25:35;;;;;;;3.78;0.80;;;8.00;99.00;;;;;;6223667;23;20004;-82
2022/04/08 07:28:01;;;;;;;4.88;0.90;;;7.80;99.70;;;;;;6197372;23;20004;-80
2022/04/08 07:30:27;;;;;;;3.75;0.98;;;7.70;99.90;;;;;;6196779;23;20278;-79
2022/04/08 07:32:54;;;;;;;5.43;1.13;;;7.70;99.90;;;;;;6197437;23;19996;-78
2022/04/08 07:35:23;;;;;;;3.90;1.10;;;7.60;99.90;;;;;;6200747;23;20008;-79
2022/04/08 07:37:49;;;;;;;5.10;1.20;;;7.60;99.90;;;;;;6199523;23;20067;-80
2022/04/08 07:40:15;;;;;;;5.90;1.45;;;7.70;99.90;;;;;;6197578;23;20009;-81
2022/04/08 07:42:42;;;;;;;4.72;1.13;;;7.70;99.90;;;;;;6198290;23;20124;-79
2022/04/08 07:45:29;;;;;;;6.82;0.90;;;7.70;99.90;;;;;;6181196;23;20119;-80
2022/04/08 07:48:27;;;;;;;2.25;0.90;;;7.80;99.90;;;;;;6193105;23;20012;-82
2022/04/08 07:50:56;;;;;;;3.20;0.70;;;8.00;99.90;;;;;;6222592;23;20004;-81
2022/04/08 07:53:43;;;;;;;2.70;0.50;;;8.00;99.90;;;;;;6197396;23;19996;-81
2022/04/08 07:56:24;;;;;;;9.05;1.10;;;8.10;99.90;;;;;;6196456;23;20005;-79
2022/04/08 07:58:50;;;;;;;3.23;1.10;;;8.00;99.90;;;;;;6222037;23;20005;-79
2022/04/08 08:01:16;;;;;;;4.55;0.77;;;8.20;99.90;;;;;;6220697;23;20333;-80
2022/04/08 08:03:45;;;;;;;4.70;0.90;;;8.40;99.90;;;;;;6196931;23;20005;-79
2022/04/08 08:06:26;;;;;;;4.53;0.50;;;8.50;99.90;;;;;;6223408;23;20001;-79
2022/04/08 08:08:58;;;;;;;4.00;0.77;;;8.70;99.90;;;;;;6197771;23;20047;-80
2022/04/08 08:11:24;;;;;;;3.78;0.70;;;8.90;99.90;;;;;;6222608;23;20024;-80
2022/04/08 08:23:01;;;;;;;2.90;0.50;;;9.90;99.30;;;;;;6222384;23;20118;-80
2022/04/08 08:25:44;;;;;;;3.03;0.52;;;9.70;98.60;;;;;;6223174;23;20004;-80
2022/04/08 08:28:35;;;;;;;1.80;0.40;;;9.70;99.10;;;;;;6242398;23;20186;-78
2022/04/08 08:43:45;;;;;;;2.88;0.80;;;9.80;97.90;;;;;;6159324;22;20062;-78
2022/04/08 08:46:20;;;;;;;;;;;9.80;99.60;;;;;;6244987;22;20016;-79
2022/04/08 08:48:50;;;;;;;3.42;0.40;;;9.70;98.70;;;;;;6247544;23;19995;-78
2022/04/08 08:55:29;;;;;;;3.70;0.93;;;9.50;99.10;;;;;;6222098;23;20001;-80
2022/04/08 09:54:05;;;;;;;1.60;0.45;;;9.20;99.90;;;;;;6071419;23;20019;-81
2022/04/08 09:57:49;;;;;;;;;;;;;;;;;;;;;
2022/04/08 13:37:11;;;;;;;2.53;1.00;;;8.70;99.90;;;;;;6155113;22;19912;-80
2022/04/08 13:39:38;;;;;;;1.65;0.77;;;8.70;99.90;;;;;;6142023;23;20031;-82
2022/04/08 13:42:05;;;;;;;2.17;0.77;;;8.80;99.90;;;;;;6143116;23;20047;-82
2022/04/08 13:44:33;;;;;;;2.78;0.80;;;8.70;99.90;;;;;;6143092;23;20044;-80
2022/04/08 13:47:15;;;;;;;2.60;1.20;;;8.50;99.90;;;;;;6191297;23;20012;-80
2022/04/08 13:49:41;;;;;;;2.08;0.77;;;8.30;99.90;;;;;;6141562;23;20008;-81
2022/04/08 16:00:42;;;;;;;1.95;0.65;;;19.10;90.50;;;;;;6053005;22;20022;-80
2022/04/08 16:07:01;;;;;;;1.83;0.47;;;17.10;92.70;;;;;;6156106;23;20013;-80
2022/04/08 16:09:54;;;;;;;2.22;0.50;;;16.00;95.00;;;;;;6194333;23;20183;-84
2022/04/08 16:12:42;;;;;;;3.15;0.60;;;15.20;95.70;;;;;;6172353;23;20050;-82
2022/04/08 16:16:12;;;;;;;2.47;0.90;;;14.70;96.60;;;;;;6193790;23;20032;-80
2022/04/08 16:19:51;;;;;;;;;;;;;;;;;;;;;
2022/04/08 16:53:49;;;;;;;3.13;1.75;;;6.40;99.90;;;;;;6191895;23;20017;-81
2022/04/08 17:09:08;;;;;;;5.28;3.35;;;6.40;99.90;;;;;;6057538;23;20379;-79
2022/04/08 17:16:56;;;;;;;5.60;4.25;;;6.50;99.90;;;;;;5995747;23;20126;-81
2022/04/08 17:19:43;;;;;;;6.63;4.10;;;6.80;99.90;;;;;;5995717;23;20085;-81
2022/04/08 17:22:27;;;;;;;8.13;4.90;;;6.90;99.90;;;;;;5995943;23;20242;-80
2022/04/08 17:25:08;;;;;;;8.35;5.47;;;6.90;99.90;;;;;;5972505;23;20012;-83
2022/04/08 17:27:34;;;;;;;7.43;5.20;;;7.00;99.90;;;;;;5994020;23;20010;-82
2022/04/08 17:30:37;;;;;;;8.20;5.30;;;7.00;99.90;;;;;;5996460;23;20011;-80
2022/04/08 17:33:05;;;;;;;6.63;4.47;;;7.00;99.90;;;;;;5995039;23;20030;-82
2022/04/08 17:35:30;;;;;;;10.02;5.55;;;7.00;99.90;;;;;;6019598;23;20008;-81
2022/04/08 17:37:56;;;;;;;7.45;4.47;;;6.90;99.90;;;;;;6019929;23;20361;-80
2022/04/08 17:40:37;;;;;;;7.57;5.00;;;6.80;99.90;;;;;;5996580;23;20036;-80
2022/04/08 17:43:04;;;;;;;7.97;5.10;;;6.60;99.90;;;;;;6021331;23;20003;-81
2022/04/08 17:45:30;;;;;;;7.95;4.65;;;6.50;99.90;;;;;;6031958;23;20003;-80
2022/04/08 17:48:00;;;;;;;6.82;5.05;;;6.40;99.90;;;;;;6165309;23;20005;-80
2022/04/08 17:50:26;;;;;;;8.05;5.20;;;6.30;99.90;;;;;;6169374;23;20089;-80
2022/04/08 17:52:56;;;;;;;7.63;4.90;;;6.30;99.90;;;;;;6147571;23;20024;-80
2022/04/08 17:55:24;;;;;;;6.80;4.97;;;6.30;99.90;;;;;;6167535;23;20001;-82
2022/04/08 17:58:12;;;;;;;7.70;5.13;;;6.30;99.90;;;;;;6192879;23;20009;-80
2022/04/08 18:00:51;;;;;;;10.68;5.90;;;6.40;99.90;;;;;;6190744;23;20339;-81
2022/04/08 18:03:29;;;;;;;12.35;6.53;;;6.60;99.90;;;;;;6169530;23;20005;-80
2022/04/08 18:06:02;;;;;;;9.38;6.18;;;6.60;99.90;;;;;;6168139;23;20324;-80
2022/04/08 18:08:32;;;;;;;9.98;6.40;;;6.70;99.90;;;;;;6193751;23;20072;-80
2022/04/08 18:10:58;;;;;;;11.30;6.78;;;6.70;99.90;;;;;;6146934;23;20008;-80
2022/04/08 18:13:37;;;;;;;10.57;7.05;;;6.70;99.90;;;;;;6220024;23;20010;-79
2022/04/08 18:16:05;;;;;;;13.60;7.43;;;6.60;99.90;;;;;;6195802;23;20287;-80
2022/04/08 18:18:32;;;;;;;11.52;7.35;;;6.60;99.90;;;;;;6146864;23;20001;-81
2022/04/08 18:21:33;;;;;;;12.52;7.53;;;6.70;99.90;;;;;;6169482;23;20001;-80
2022/04/08 21:40:54;;;;;;;10.15;5.50;;;5.70;99.90;;;;;;6224344;23;20119;-82
2022/04/08 21:43:22;;;;;;;8.73;5.70;;;5.60;99.90;;;;;;6175372;23;20184;-81
2022/04/08 21:45:55;;;;;;;9.30;6.20;;;5.60;99.90;;;;;;6174026;23;20013;-80
2022/04/08 21:48:33;;;;;;;10.13;6.38;;;5.60;99.90;;;;;;6175028;23;20004;-83
2022/04/08 21:50:59;;;;;;;8.30;5.28;;;5.50;99.90;;;;;;6174104;23;20071;-83
2022/04/08 22:01:38;;;;;;;8.70;4.95;;;5.30;99.90;;;;;;6210741;23;20031;-81
2022/04/08 22:04:04;;;;;;;6.30;3.90;;;5.30;99.90;;;;;;6230274;23;20004;-81
2022/04/08 22:06:30;;;;;;;5.70;3.90;;;5.20;99.90;;;;;;6228607;23;20011;-80
2022/04/08 22:08:57;;;;;;;3.90;2.75;;;5.10;99.90;;;;;;6228954;23;20027;-81
2022/04/08 22:11:26;;;;;;;3.53;2.30;;;5.00;99.90;;;;;;6229873;23;20007;-82
2022/04/08 22:13:55;;;;;;;4.15;2.13;;;4.90;99.90;;;;;;6229623;23;20062;-82
2022/04/08 22:16:24;;;;;;;3.78;2.28;;;4.70;99.90;;;;;;6223624;23;19988;-80
2022/04/08 22:18:52;;;;;;;3.80;2.50;;;4.50;99.90;;;;;;6228754;23;20321;-79
2022/04/08 22:21:33;;;;;;;3.83;2.67;;;4.30;99.90;;;;;;6228894;23;19992;-79
2022/04/08 22:23:59;;;;;;;3.45;2.35;;;4.20;99.90;;;;;;6228033;23;20084;-81
2022/04/08 22:26:27;;;;;;;4.43;3.17;;;4.00;99.90;;;;;;6228551;23;20047;-82
2022/04/08 22:29:33;;;;;;;5.22;2.47;;;4.00;99.90;;;;;;6228404;23;20042;-81
2022/04/08 22:32:05;;;;;;;3.95;3.00;;;3.90;99.90;;;;;;6212321;23;20019;-81
2022/04/08 22:34:37;;;;;;;3.78;2.35;;;3.80;99.90;;;;;;6229892;23;20163;-83
2022/04/08 22:37:32;;;;;;;2.65;1.88;;;3.50;99.90;;;;;;6227328;23;20074;-84
2022/04/08 22:44:12;;;;;;;2.33;1.63;;;2.70;99.90;;;;;;6256859;23;20106;-81
2022/04/08 22:46:39;;;;;;;2.35;1.60;;;2.40;99.90;;;;;;6229523;23;20039;-81
2022/04/08 22:49:11;;;;;;;2.00;1.20;;;2.40;99.90;;;;;;6229138;23;19996;-80
2022/04/08 22:54:59;;;;;;;1.20;0.70;;;2.10;99.90;;;;;;6229378;23;20007;-82
2022/04/08 22:57:36;;;;;;;1.23;0.60;;;1.90;99.90;;;;;;6229743;23;20004;-82
2022/04/08 23:00:05;;;;;;;1.17;0.50;;;1.70;99.90;;;;;;6229663;23;20011;-82
2022/04/08 23:02:32;;;;;;;1.10;0.50;;;1.60;99.90;;;;;;6229080;23;20305;-82
2022/04/08 23:05:01;;;;;;;1.30;0.50;;;1.60;99.90;;;;;;6229130;23;20242;-82
2022/04/08 23:07:27;;;;;;;0.80;0.30;;;1.50;99.90;;;;;;6229449;23;20070;-82
2022/04/08 23:10:03;;;;;;;0.75;0.40;;;1.60;99.90;;;;;;6229298;23;20278;-80
2022/04/08 23:12:29;;;;;;;0.77;0.30;;;1.50;99.90;;;;;;6229377;23;20027;-80
2022/04/08 23:14:55;;;;;;;0.93;0.40;;;1.50;99.90;;;;;;6229079;23;20046;-79
2022/04/08 23:18:04;;;;;;;0.85;0.35;;;1.50;99.90;;;;;;6228562;23;20062;-80
2022/04/08 23:20:30;;;;;;;0.77;0.30;;;1.40;99.90;;;;;;6229312;23;20357;-81
2022/04/08 23:23:02;;;;;;;1.40;0.30;;;1.30;99.90;;;;;;6228767;23;20008;-81
2022/04/08 23:25:29;;;;;;;2.70;0.35;;;1.20;99.90;;;;;;6229291;23;20007;-80
2022/04/08 23:27:55;;;;;;;0.77;0.40;;;1.20;99.90;;;;;;6228811;23;20018;-81
2022/04/08 23:30:21;;;;;;;0.82;0.38;;;1.20;99.90;;;;;;6229166;23;20008;-80
2022/04/08 23:32:49;;;;;;;1.00;0.40;;;1.10;99.90;;;;;;6228690;23;20008;-79
2022/04/08 23:35:34;;;;;;;0.82;0.40;;;1.20;99.90;;;;;;6223884;23;20112;-79
2022/04/08 23:38:03;;;;;;;0.98;0.38;;;1.20;99.90;;;;;;6199540;23;20194;-82
2022/04/08 23:40:29;;;;;;;0.63;0.28;;;1.20;99.90;;;;;;6175421;23;20281;-80
2022/04/08 23:43:58;;;;;;;0.77;0.30;;;1.10;99.90;;;;;;6203222;23;20012;-80
2022/04/08 23:46:35;;;;;;;1.08;0.30;;;1.20;99.90;;;;;;6100735;23;20042;-81
2022/04/08 23:49:07;;;;;;;1.60;0.30;;;1.10;99.90;;;;;;6127680;23;20101;-80
2022/04/08 23:51:33;;;;;;;0.75;0.22;;;1.00;99.90;;;;;;6133004;23;20057;-81
2022/04/08 23:54:05;;;;;;;0.90;0.20;;;1.10;99.90;;;;;;6133762;23;20053;-81
2022/04/08 23:56:58;;;;;;;0.65;0.20;;;1.10;99.90;;;;;;6134862;23;20010;-80
2022/04/08 23:59:24;;;;;;;0.45;0.20;;;1.10;99.90;;;;;;6108343;23;20216;-81
